createdAt,value
2023-07-29T00:02:31.235Z,97.91
2023-07-29T00:09:05.322Z,97.77
2023-07-29T00:13:08.728Z,97.92
2023-07-29T00:18:28.035Z,97.91
2023-07-29T00:39:44.754Z,98.27
2023-07-29T00:45:03.851Z,97.74
2023-07-29T00:55:41.965Z,97.28
2023-07-29T01:01:00.979Z,97.14
2023-07-29T01:11:39.783Z,97.21
2023-07-29T01:22:18.016Z,96.3
2023-07-29T01:32:55.758Z,95.56
2023-07-29T01:38:14.789Z,95.91
2023-07-29T01:48:53.178Z,97.03
2023-07-29T01:59:31.488Z,96.87
2023-07-29T02:04:50.464Z,97.13
2023-07-29T02:15:29.228Z,97.57
2023-07-29T02:20:47.697Z,97.39
2023-07-29T02:31:26.137Z,98.43
2023-07-29T02:36:44.845Z,98.46
2023-07-29T02:47:23.473Z,97.72
2023-07-29T02:58:02.641Z,98.15
2023-07-29T03:03:21.812Z,98.37
2023-07-29T03:13:59.881Z,98.19
2023-07-29T03:19:18.452Z,97.92
2023-07-29T03:29:57.157Z,97.11
2023-07-29T03:45:54.879Z,95.85
2023-07-29T03:56:32.788Z,96.18
2023-07-29T04:01:51.920Z,95.49
2023-07-29T04:12:30.041Z,95.22
2023-07-29T04:17:50.442Z,96.42
2023-07-29T04:28:27.445Z,97.61
2023-07-29T04:39:05.642Z,98.13
2023-07-29T04:44:25.156Z,98.5
2023-07-29T04:55:04.429Z,98.56
2023-07-29T05:00:24.232Z,98.2
2023-07-29T05:11:01.875Z,96.85
2023-07-29T05:21:40.856Z,96.14
2023-07-29T05:27:00.063Z,95.68
2023-07-29T05:43:34.236Z,94.44
2023-07-29T05:48:53.196Z,95.31
2023-07-29T05:59:32.032Z,96.8
2023-07-29T06:10:09.746Z,97.78
2023-07-29T06:15:28.505Z,98.31
2023-07-29T06:26:05.963Z,98.94
2023-07-29T06:31:24.766Z,99.14
2023-07-29T06:42:04.132Z,99.23
2023-07-29T06:52:42.325Z,99.2
2023-07-29T06:58:01.077Z,99.27
2023-07-29T07:08:39.953Z,99.44
2023-07-29T07:14:00.175Z,99.56
2023-07-29T07:24:38.766Z,99.8
2023-07-29T07:35:16.584Z,99.85
2023-07-29T07:40:37.014Z,99.92
2023-07-29T07:51:15.072Z,99.99
2023-07-29T07:56:35.149Z,99.93
2023-07-29T08:01:52.717Z,99.72
2023-07-29T08:07:11.701Z,99.73
2023-07-29T08:12:31.321Z,99.5
2023-07-29T08:23:20.894Z,98.63
2023-07-29T08:28:27.859Z,95.34
2023-07-29T08:33:47.529Z,94.38
2023-07-29T08:45:41.522Z,95.12
2023-07-29T09:03:39.516Z,91.72
2023-07-29T09:05:43.739Z,89.8
2023-07-29T09:12:42.290Z,86.74
2023-07-29T09:26:59.709Z,90.79
2023-07-29T09:42:57.742Z,95.42
2023-07-29T09:48:14.915Z,96.55
2023-07-29T09:58:53.281Z,97.16
2023-07-29T10:09:32.665Z,93.28
2023-07-29T10:25:29.159Z,88.25
2023-07-29T10:30:48.255Z,89.14
2023-07-29T10:41:27.702Z,83.91
2023-07-29T10:48:01.880Z,82.04
2023-07-29T10:52:07.250Z,82.88
2023-07-29T11:09:13.385Z,79.33
2023-07-29T11:13:28.025Z,79.87
2023-07-29T11:24:00.328Z,77.9
2023-07-29T11:29:20.286Z,79.1
2023-07-29T11:39:58.840Z,75.8
2023-07-29T11:45:18.464Z,73.82
2023-07-29T11:55:54.615Z,75.53
2023-07-29T12:06:32.268Z,73.36
2023-07-29T12:11:51.559Z,72.07
2023-07-29T12:22:29.984Z,72.26
2023-07-29T12:27:49.448Z,69.87
2023-07-29T12:38:27.162Z,69.53
2023-07-29T12:49:04.896Z,68.01
2023-07-29T12:54:23.683Z,65.37
2023-07-29T13:05:03.335Z,63.35
2023-07-29T13:10:21.553Z,62.13
2023-07-29T13:21:00.016Z,66.21
2023-07-29T13:31:38.824Z,62.67
2023-07-29T13:36:57.401Z,62.08
2023-07-29T13:47:35.984Z,60.41
2023-07-29T13:52:55.040Z,57.8
2023-07-29T14:03:33.049Z,57.15
2023-07-29T14:08:52.733Z,57.14
2023-07-29T14:14:11.175Z,56.43
2023-07-29T14:19:30.602Z,54.87
2023-07-29T14:30:09.181Z,53.8
2023-07-29T14:35:28.789Z,53.79
2023-07-29T14:46:07.203Z,54.67
2023-07-29T14:56:44.564Z,54.26
2023-07-29T15:07:23.241Z,54.45
2023-07-29T15:12:43.018Z,54.45
2023-07-29T15:23:21.067Z,54.62
2023-07-29T15:28:40.652Z,55.81
2023-07-29T15:39:18.878Z,56.13
2023-07-29T15:44:38.315Z,55.47
2023-07-29T15:55:17.230Z,57.61
2023-07-29T16:05:55.452Z,56.22
2023-07-29T16:11:14.645Z,57.38
2023-07-29T16:21:53.138Z,54.97
2023-07-29T16:27:11.627Z,55.47
2023-07-29T16:37:49.814Z,53.41
2023-07-29T16:43:08.892Z,56.45
2023-07-29T16:53:48.683Z,58.04
2023-07-29T16:59:08.019Z,60.13
2023-07-29T17:04:27.031Z,60.38
2023-07-29T17:09:45.192Z,61.45
2023-07-29T17:20:23.140Z,63.37
2023-07-29T17:25:42.391Z,64.41
2023-07-29T17:36:20.913Z,64.71
2023-07-29T17:46:58.947Z,69.5
2023-07-29T17:52:17.791Z,71.24
2023-07-29T18:02:55.270Z,72.16
2023-07-29T18:08:14.697Z,74.36
2023-07-29T18:18:53.802Z,77.17
2023-07-29T18:24:13.233Z,77.18
2023-07-29T18:29:32.643Z,77.44
2023-07-29T18:34:51.576Z,77
2023-07-29T18:45:29.558Z,76.87
2023-07-29T18:50:47.983Z,77.18
2023-07-29T19:01:26.751Z,76.42
2023-07-29T19:06:45.729Z,77.71
2023-07-29T19:17:24.622Z,79.21
2023-07-29T19:28:02.288Z,77.12
2023-07-29T19:33:21.240Z,76.83
2023-07-29T19:44:05.695Z,75.99
2023-07-29T19:49:19.517Z,76.23
2023-07-29T19:59:59.129Z,75.91
2023-07-29T20:05:18.667Z,76.31
2023-07-29T20:10:38.284Z,76.97
2023-07-29T20:15:57.315Z,77.72
2023-07-29T20:26:35.253Z,79.79
2023-07-29T20:31:54.911Z,80.43
2023-07-29T20:42:32.379Z,81.03
2023-07-29T20:47:51.813Z,80.6
2023-07-29T20:53:11.697Z,80.21
2023-07-29T20:58:29.726Z,80.11
2023-07-29T21:09:07.140Z,80.94
2023-07-29T21:14:26.253Z,81.56
2023-07-29T21:25:05.864Z,82.07
2023-07-29T21:35:44.176Z,82.45
2023-07-29T21:46:22.761Z,82.5
2023-07-29T21:51:41.660Z,82.64
2023-07-29T22:02:21.067Z,83.77
2023-07-29T22:07:40.408Z,83.99
2023-07-29T22:18:17.891Z,84.69
2023-07-29T22:28:55.473Z,85.49
2023-07-29T22:34:14.528Z,85.38
2023-07-29T22:44:53.142Z,85.54
2023-07-29T22:50:12.778Z,85.37
2023-07-29T23:00:51.157Z,85.45
2023-07-29T23:06:10.626Z,85.87
2023-07-29T23:11:29.381Z,87.04
2023-07-29T23:16:47.674Z,88.47
2023-07-29T23:27:26.324Z,89.65
2023-07-29T23:32:45.223Z,89.48
2023-07-29T23:38:30.769Z,88.23
2023-07-29T23:43:50.616Z,89.79
2023-07-29T23:49:09.082Z,90.27
2023-07-29T23:59:47.433Z,90.74
